Tiempo atmosférico en la estación meteorológica de Leciñena, Zaragoza (405 m.)



Fecha
DESCASC
Temp. máxima en grados centígrados (hora)
DESCASC
Temp. mínima en grados centígrados (hora)
DESCASC
Temp. media en grados centígrados
DESCASC
Racha de viento máxima en m/sg (hora)
DESCASC
Velocidad máxima media en intervalos de 10 minutos(hora)
DESCASC
Precipitaciones diarias en mm
DESCASC
Precipitaciones de 00:00 a 06:00 en mm
DESCASC
Precipitaciones de 06:00 a 12:00 en mm
DESCASC
Precipitaciones de 12:00 a 18:00 en mm
DESCASC
Precipitaciones de 18:00 a 24:00 en mm
DESCASC
29-10-2020 20.6 (15:50) 5.5 (07:00) 13.1 3.89 (12:10) 2.22 (07:30) 0 0 0 0 0
28-10-2020 20.1 (16:20) 5.5 (06:50) 12.8 5.28 (11:20) 3.33 (12:50) 0 0 0 0 0
27-10-2020 17 (14:20) 2.6 (00:00) 9.8 7.5 (13:40) 4.17 (12:40) 0 0 0 0 0
26-10-2020 14.6 (14:40) 3.7 (00:00) 9.2 14.17 (14:20) 8.61 (13:20) 0 0 0 0 0
25-10-2020 20 (13:30) 6.7 (00:00) 13.3 9.72 (21:30) 5.28 (21:30) 6.6 0 0 0 6.6
24-10-2020 19.9 (16:00) 4.7 (00:00) 12.3 6.94 (17:00) 4.44 (17:00) 0 0 0 0 0
23-10-2020 19.7 (15:30) 9.6 (00:00) 14.7 10.83 (11:20) 5.83 (12:00) 0 0 0 0 0
22-10-2020 19.4 (14:40) 14.4 (00:00) 16.9 11.39 (14:20) 6.67 (14:20) 2.6 0 0 0 2.6
21-10-2020 25.2 (14:10) 13.9 (00:00) 19.6 19.72 (00:50) 11.94 (00:50) 0 0 0 0 0
20-10-2020 17.7 (16:20) 13.9 (00:00) 15.8 22.22 (20:20) 13.89 (17:40) 1.4 0 0.6 0.8 0
19-10-2020 21.4 (17:00) 5.5 (00:00) 13.4 16.39 (23:20) 10.83 (23:30) 0 0 0 0 0
18-10-2020 20.4 (17:20) 1.4 (00:00) 10.9 4.17 (22:20) 2.22 (22:20) 0 0 0 0 0
17-10-2020 18.5 (17:00) 0.5 (00:00) 9.5 6.11 (18:00) 3.89 (18:10) 0 0 0 0 0
16-10-2020 16.8 (15:50) 2.5 (00:00) 9.6 6.39 (16:00) 3.89 (18:40) 0 0 0 0 0
15-10-2020 15.5 (14:40) 5.2 (00:00) 10.3 14.72 (14:50) 9.72 (14:50) 0 0 0 0 0
14-10-2020 15.8 (15:20) 7.7 (00:00) 11.8 15.56 (17:20) 10.28 (14:10) 0 0 0 0 0
13-10-2020 19.1 (14:20) 9.3 (00:00) 14.2 17.22 (13:20) 10.56 (16:30) 0 0 0 0 0
12-10-2020 17.8 (14:00) 8.4 (00:00) 13.1 17.5 (14:20) 10.28 (15:10) 0 0 0 0 0
11-10-2020 16.4 (14:30) 9 (00:00) 12.7 25.83 (12:20) 13.61 (15:30) 0 0 0 0 0
10-10-2020 21.6 (15:20) 10.4 (00:00) 16 14.72 (16:20) 9.17 (15:50) 0 0 0 0 0
09-10-2020 25.8 (17:40) 11.5 (00:00) 18.6 5 (14:40) 2.78 (03:30) 0 0 0 0 0
08-10-2020 26.5 (17:00) 7.6 (00:00) 17 5.28 (18:30) 3.61 (18:20) 0 0 0 0 0
07-10-2020 22.7 (15:10) 10.9 (00:00) 16.8 19.17 (14:20) 10.83 (16:50) 0 0 0 0 0
06-10-2020 24.8 (15:40) 6.4 (00:00) 15.6 7.22 (14:20) 3.89 (13:20) 0 0 0 0 0
05-10-2020 18.7 (15:10) 5 (00:00) 11.9 12.78 (13:50) 7.5 (13:50) 0 0 0 0 0
04-10-2020 17.6 (15:10) 5.7 (00:00) 11.7 11.94 (19:00) 5.83 (19:00) 1.4 0 0 0.4 1
03-10-2020 18.8 (16:40) 5.7 (00:00) 12.2 11.39 (15:00) 7.22 (15:20) 0 0 0 0 0
02-10-2020 17.4 (01:30) 5.9 (00:00) 11.6 15 (12:40) 10 (12:40) 11 0 8.4 2.6 0
01-10-2020 24 (13:50) 8.6 (07:40) 16.3 8.89 (14:00) 5 (13:40) 0 0 0 0 0

Gráficas

Temp. máximas Temp. mínimas Temp. medias Precipitaciones Rachas de viento máximas Velocidades máximas media en intervalos de 10 minutos

Datos horarios

Fecha y hora oficial Temperatura (ºC) Velocidad del viento (km/h) Dirección del viento Racha (km/h) Dirección de racha Precipitación (mm) Presión (hPa) Tendencia (hPa) Humedad (%)
2020-10-30 23:00:00 8.1 4 Sudoeste 7 Sudoeste 0 -- -- 82
2020-10-30 22:00:00 8.4 5 Sudoeste 7 Sudoeste 0 -- -- 79
2020-10-30 21:00:00 9 5 Sudoeste 9 Sur 0 -- -- 78
2020-10-30 20:00:00 9.9 5 Sudoeste 8 Sudoeste 0 -- -- 74
2020-10-30 19:00:00 11.6 5 Sur 8 Sudoeste 0 -- -- 70
2020-10-30 18:00:00 15.4 0 Calma 4 Noroeste 0 -- -- 55
2020-10-30 17:00:00 21.3 0 Calma 6 Norte 0 -- -- 40
2020-10-30 16:00:00 21.6 4 Norte 10 Norte 0 -- -- 42
2020-10-30 15:00:00 21.5 2 Sudeste 9 Noroeste 0 -- -- 48
2020-10-30 14:00:00 20 4 Norte 12 Norte 0 -- -- 51
2020-10-30 13:00:00 19.1 6 Norte 14 Noroeste 0 -- -- 53
2020-10-30 12:00:00 17.4 6 Noroeste 17 Noroeste 0 -- -- 61
2020-10-30 11:00:00 15.3 3 Norte 9 Norte 0 -- -- 70
2020-10-30 10:00:00 13.7 2 Sudeste 6 Norte 0 -- -- 78
2020-10-30 09:00:00 9.3 4 Sudoeste 8 Sudoeste 0 -- -- 93
2020-10-30 08:00:00 5 4 Sur 6 Sur 0 -- -- 96
2020-10-30 07:00:00 4.8 4 Sudoeste 6 Sudoeste 0 -- -- 95
2020-10-30 06:00:00 5.4 3 Sur 9 Sudoeste 0 -- -- 94
2020-10-30 05:00:00 5.5 2 Sur 5 Sur 0 -- -- 94
2020-10-30 04:00:00 5.6 0 Calma 6 Sur 0 -- -- 92
2020-10-30 03:00:00 6.8 4 Sur 8 Sur 0 -- -- 92
2020-10-30 02:00:00 6.4 3 Sur 5 Sudoeste 0 -- -- 93
2020-10-30 01:00:00 7 0 Calma 5 Sur 0 -- -- 92
2020-10-30 00:00:00 7.5 3 Sudoeste 11 Sudoeste 0 -- -- 87
2020-10-29 23:00:00 8.1 2 Sur 4 Sudoeste 0 -- -- 89
2020-10-29 22:00:00 8.7 0 Calma 8 Sudoeste 0 -- -- 85
2020-10-29 21:00:00 9.6 0 Calma 5 Sudoeste 0 -- -- 84
2020-10-29 20:00:00 10.7 3 Sur 9 Sudoeste 0 -- -- 81
2020-10-29 19:00:00 11.3 5 Sudoeste 6 Sudoeste 0 -- -- 79
2020-10-29 18:00:00 15.1 0 Calma 4 Norte 0 -- -- 64
2020-10-29 17:00:00 20.2 0 Calma 9 Noroeste 0 -- -- 49
2020-10-29 16:00:00 20.4 4 Norte 12 Sudoeste 0 -- -- 51
2020-10-29 15:00:00 20.1 4 Norte 12 Oeste 0 -- -- 52
2020-10-29 14:00:00 19.5 5 Noroeste 13 Norte 0 -- -- 55
2020-10-29 13:00:00 18.7 7 Noroeste 14 Norte 0 -- -- 57
2020-10-29 12:00:00 17.6 6 Noroeste 13 Oeste 0 -- -- 61
2020-10-29 11:00:00 16.1 6 Noroeste 13 Noroeste 0 -- -- 65
2020-10-29 10:00:00 13.7 6 Noroeste 11 Sur 0 -- -- 77
2020-10-29 09:00:00 11.1 5 Sudoeste 11 Sudoeste 0 -- -- 90
2020-10-29 08:00:00 8.1 6 Sur 11 Sur 0 -- -- 96
2020-10-29 07:00:00 5.5 4 Sudoeste 9 Sudoeste 0 -- -- 96
2020-10-29 06:00:00 6.2 4 Sudoeste 7 Sudoeste 0 -- -- 95
2020-10-29 05:00:00 6.6 5 Sudoeste 6 Sudoeste 0 -- -- 95
2020-10-29 04:00:00 7.1 5 Sudoeste 9 Sudoeste 0 -- -- 94
2020-10-29 03:00:00 7.5 6 Sudoeste 9 Sudoeste 0 -- -- 92
2020-10-29 02:00:00 7.6 6 Sudoeste 9 Sudoeste 0 -- -- 92
2020-10-29 01:00:00 8.8 4 Sudoeste 7 Sur 0 -- -- 89
2020-10-29 00:00:00 9.3 2 Sudoeste 8 Sudoeste 0 -- -- 88
2020-10-28 23:00:00 9.6 4 Sur 8 Sudoeste 0 -- -- 89
2020-10-28 22:00:00 8.8 4 Sudoeste 6 Sudoeste 0 -- -- 89
2020-10-28 21:00:00 9.5 5 Sudoeste 9 Sudoeste 0 -- -- 87
2020-10-28 20:00:00 10.8 3 Sur 8 Sudoeste 0 -- -- 83
2020-10-28 19:00:00 11.4 0 Calma 4 Sur 0 -- -- 81
2020-10-28 18:00:00 15.5 0 Calma 13 Norte 0 -- -- 68
2020-10-28 17:00:00 19.2 7 Norte 15 Norte 0 -- -- 56
2020-10-28 16:00:00 19.7 7 Norte 14 Norte 0 -- -- 56
2020-10-28 15:00:00 19.6 10 Norte 19 Norte 0 -- -- 55
2020-10-28 14:00:00 19.5 8 Noroeste 18 Noroeste 0 -- -- 56
2020-10-28 13:00:00 18.6 8 Noroeste 18 Noroeste 0 -- -- 59
2020-10-28 12:00:00 17.8 7 Noroeste 19 Noroeste 0 -- -- 62
2020-10-28 11:00:00 16.8 8 Noroeste 12 Noroeste 0 -- -- 64
2020-10-28 10:00:00 15.6 0 Calma 6 Noroeste 0 -- -- 70
2020-10-28 09:00:00 10.8 0 Calma 7 Sudoeste 0 -- -- 87
2020-10-28 08:00:00 6.2 6 Sudoeste 9 Sudoeste 0 -- -- 94
2020-10-28 07:00:00 6 6 Sudoeste 8 Sur 0 -- -- 94
2020-10-28 06:00:00 6.9 0 Calma 7 Sudoeste 0 -- -- 92
2020-10-28 05:00:00 7 5 Sudoeste 6 Sudoeste 0 -- -- 91
2020-10-28 04:00:00 7.3 3 Sur 9 Sudoeste 0 -- -- 88
2020-10-28 03:00:00 7.4 3 Sudoeste 7 Sudoeste 0 -- -- 87
2020-10-28 02:00:00 7.7 3 Sur 6 Sudoeste 0 -- -- 86
2020-10-28 01:00:00 8.6 4 Sudoeste 6 Sur 0 -- -- 83
2020-10-28 00:00:00 10.2 4 Sur 9 Sudoeste 0 -- -- 77
2020-10-27 23:00:00 9.4 4 Sur 7 Sudoeste 0 -- -- 79
2020-10-27 22:00:00 10.5 3 Sudoeste 6 Sudoeste 0 -- -- 76
2020-10-27 21:00:00 10.6 3 Sudoeste 7 Sur 0 -- -- 75
2020-10-27 20:00:00 10.4 2 Sudoeste 9 Sudoeste 0 -- -- 74
2020-10-27 19:00:00 11 0 Calma 6 Sudoeste 0 -- -- 69
2020-10-27 18:00:00 12.7 0 Calma 10 Norte 0 -- -- 62
2020-10-27 17:00:00 15.6 6 Norte 10 Norte 0 -- -- 51
2020-10-27 16:00:00 15.6 6 Norte 18 Norte 0 -- -- 50
2020-10-27 15:00:00 16.4 10 Noroeste 21 Noroeste 0 -- -- 48
2020-10-27 14:00:00 15.8 12 Noroeste 27 Noroeste 0 -- -- 49
2020-10-27 13:00:00 15.2 13 Noroeste 26 Oeste 0 -- -- 50
2020-10-27 12:00:00 14.2 7 Noroeste 16 Noroeste 0 -- -- 55
2020-10-27 11:00:00 13.2 9 Noroeste 16 Noroeste 0 -- -- 59
2020-10-27 10:00:00 10.7 0 Calma 5 Sudoeste 0 -- -- 71
2020-10-27 09:00:00 7.4 2 Sur 8 Sudoeste 0 -- -- 84
2020-10-27 08:00:00 3.8 5 Sudoeste 9 Sudoeste 0 -- -- 92
2020-10-27 07:00:00 4 5 Sudoeste 11 Sudoeste 0 -- -- 91
2020-10-27 06:00:00 4.3 3 Sur 9 Sudoeste 0 -- -- 92
2020-10-27 05:00:00 4.2 4 Sur 9 Sur 0 -- -- 90
2020-10-27 04:00:00 4.2 5 Sur 11 Sudoeste 0 -- -- 92
2020-10-27 03:00:00 3.7 5 Sudoeste 7 Sudoeste 0 -- -- 93
2020-10-27 02:00:00 2.9 7 Sudoeste 9 Sur 0 -- -- 93
2020-10-27 01:00:00 3 6 Sudoeste 9 Sudoeste 0 -- -- 92
2020-10-27 00:00:00 4 3 Sur 8 Sudoeste 0 -- -- 91
2020-10-26 23:00:00 4.9 5 Sudoeste 8 Sur 0 -- -- 89
2020-10-26 22:00:00 5.9 5 Sudoeste 9 Sur 0 -- -- 85
2020-10-26 21:00:00 6.5 0 Calma 10 Sudoeste 0 -- -- 85
2020-10-26 20:00:00 7.9 3 Noroeste 22 Nordeste 0 -- -- 78
2020-10-26 19:00:00 8.4 5 Norte 19 Norte 0 -- -- 79
2020-10-26 18:00:00 11.1 15 Norte 39 Norte 0 -- -- 71
2020-10-26 17:00:00 13.2 24 Norte 42 Norte 0 -- -- 57
2020-10-26 16:00:00 14.3 25 Norte 45 Norte 0 -- -- 54
2020-10-26 15:00:00 13 29 Norte 51 Norte 0 -- -- 59
2020-10-26 14:00:00 13.8 27 Norte 49 Norte 0 -- -- 57
2020-10-26 13:00:00 12.9 31 Norte 47 Norte 0 -- -- 59
2020-10-26 12:00:00 12.7 23 Norte 44 Norte 0 -- -- 65
2020-10-26 11:00:00 10.2 20 Norte 37 Norte 0 -- -- 72
2020-10-26 10:00:00 9.1 17 Norte 35 Norte 0 -- -- 77
2020-10-26 09:00:00 8.7 17 Norte 24 Norte 0 -- -- 79
2020-10-26 08:00:00 6 8 Norte 15 Norte 0 -- -- 88
2020-10-26 07:00:00 5.9 5 Norte 21 Norte 0 -- -- 87
2020-10-26 06:00:00 6.5 13 Norte 23 Noroeste 0 -- -- 87
2020-10-26 05:00:00 6.7 9 Norte 17 Noroeste 0 -- -- 90
2020-10-26 04:00:00 6.9 4 Norte 13 Norte 0 -- -- 88
2020-10-26 03:00:00 8.8 10 Norte 30 Norte 0 -- -- 84
2020-10-26 02:00:00 10.3 12 Norte 24 Norte 0 -- -- 84
2020-10-26 01:00:00 10.4 13 Noroeste 22 Noroeste 0 -- -- 92
2020-10-26 00:00:00 10.9 12 Noroeste 30 Noroeste 3.6 -- -- 94
2020-10-25 23:00:00 12.3 9 Oeste 19 Oeste 2.6 -- -- 94
2020-10-25 22:00:00 13.6 10 Norte 35 Noroeste 0.4 -- -- 87
2020-10-25 21:00:00 15.8 5 Oeste 10 Sudoeste 0 -- -- 66
2020-10-25 20:00:00 16.4 5 Noroeste 12 Noroeste 0 -- -- 62
2020-10-25 19:00:00 15.8 5 Sudoeste 8 Sudoeste 0 -- -- 60
2020-10-25 18:00:00 16.9 4 Oeste 20 Sudoeste 0 -- -- 55
2020-10-25 17:00:00 17.1 8 Oeste 15 Oeste 0 -- -- 54
2020-10-25 16:00:00 17.6 7 Noroeste 15 Oeste 0 -- -- 55
2020-10-25 15:00:00 17.8 10 Oeste 24 Noroeste 0 -- -- 52
2020-10-25 14:00:00 19.1 11 Noroeste 26 Oeste 0 -- -- 52
2020-10-25 13:00:00 18.7 13 Oeste 30 Noroeste 0 -- -- 50
2020-10-25 12:00:00 17.8 15 Oeste 26 Oeste 0 -- -- 55
2020-10-25 11:00:00 16.7 15 Oeste 28 Oeste 0 -- -- 58
2020-10-25 10:00:00 15.5 10 Oeste 15 Noroeste 0 -- -- 64
2020-10-25 09:00:00 12.5 5 Sudoeste 11 Sudoeste 0 -- -- 76
2020-10-25 08:00:00 7.5 4 Sur 7 Sur 0 -- -- 89
2020-10-25 07:00:00 9.5 6 Sudoeste 10 Sudoeste 0 -- -- 81
2020-10-25 06:00:00 9.4 8 Sur 13 Sudoeste 0 -- -- 82
2020-10-25 05:00:00 7.7 10 Sudoeste 13 Sudoeste 0 -- -- 85
2020-10-25 04:00:00 7.8 4 Sur 12 Sudoeste 0 -- -- 86
2020-10-25 03:00:00 9.3 6 Sudoeste 13 Sudoeste 0 -- -- 81
2020-10-25 02:00:00 8.1 7 Sudoeste 10 Sudoeste 0 -- -- 86
2020-10-25 01:00:00 8.8 7 Sudoeste 10 Sudoeste 0 -- -- 84
2020-10-25 00:00:00 9.9 8 Sudoeste 10 Sudoeste 0 -- -- 80
2020-10-24 23:00:00 9.8 4 Oeste 10 Sudoeste 0 -- -- 78
2020-10-24 22:00:00 10.2 2 Sur 9 Sudoeste 0 -- -- 73
2020-10-24 21:00:00 12.9 8 Sudoeste 10 Sudoeste 0 -- -- 66
2020-10-24 20:00:00 13.1 7 Sudoeste 15 Noroeste 0 -- -- 65
2020-10-24 19:00:00 15.2 7 Noroeste 15 Oeste 0 -- -- 58
2020-10-24 18:00:00 18.2 13 Noroeste 23 Noroeste 0 -- -- 49
2020-10-24 17:00:00 19.4 16 Oeste 25 Oeste 0 -- -- 47
2020-10-24 16:00:00 19.9 10 Oeste 21 Noroeste 0 -- -- 47
2020-10-24 15:00:00 18.8 8 Oeste 16 Noroeste 0 -- -- 49
2020-10-24 14:00:00 18.3 7 Oeste 17 Oeste 0 -- -- 51
2020-10-24 13:00:00 16.8 6 Norte 17 Noroeste 0 -- -- 56
2020-10-24 12:00:00 15.3 8 Noroeste 14 Noroeste 0 -- -- 62
2020-10-24 11:00:00 13.6 6 Sudoeste 11 Oeste 0 -- -- 70
2020-10-24 10:00:00 10.6 2 Sur 6 Sur 0 -- -- 83
2020-10-24 09:00:00 5.6 4 Sudoeste 8 Sudoeste 0 -- -- 92
2020-10-24 08:00:00 5.1 4 Sudoeste 6 Sudoeste 0 -- -- 94
2020-10-24 07:00:00 6.1 4 Sudoeste 8 Sudoeste 0 -- -- 90
2020-10-24 06:00:00 6.7 8 Sudoeste 9 Sur 0 -- -- 89
2020-10-24 05:00:00 6.5 5 Sudoeste 8 Sur 0 -- -- 89
2020-10-24 04:00:00 6.9 4 Sur 10 Sur 0 -- -- 87
2020-10-24 03:00:00 6.6 4 Sur 9 Sudoeste 0 -- -- 88
2020-10-24 02:00:00 7.6 2 Sudoeste 8 Sudoeste 0 -- -- 85
2020-10-24 01:00:00 9.2 5 Sudoeste 9 Sur 0 -- -- 81
2020-10-24 00:00:00 10 3 Sur 13 Noroeste 0 -- -- 77
2020-10-23 23:00:00 11.4 5 Oeste 9 Noroeste 0 -- -- 72
2020-10-23 22:00:00 10.1 6 Sudoeste 8 Sur 0 -- -- 81
2020-10-23 21:00:00 10.8 2 Sur 5 Sur 0 -- -- 79
2020-10-23 20:00:00 13.3 0 Calma 12 Norte 0 -- -- 69
2020-10-23 19:00:00 15.8 8 Norte 20 Nordeste 0 -- -- 60
2020-10-23 18:00:00 17.4 10 Noroeste 25 Noroeste 0 -- -- 52
2020-10-23 17:00:00 19.2 10 Noroeste 18 Noroeste 0 -- -- 42
2020-10-23 16:00:00 17.8 10 Noroeste 30 Noroeste 0 -- -- 50
2020-10-23 15:00:00 19.6 17 Noroeste 27 Noroeste 0 -- -- 48
2020-10-23 14:00:00 18.1 17 Noroeste 31 Norte 0 -- -- 54
2020-10-23 13:00:00 18.3 15 Noroeste 30 Noroeste 0 -- -- 58
2020-10-23 12:00:00 16.2 21 Noroeste 39 Noroeste 0 -- -- 67
2020-10-23 11:00:00 15.4 12 Noroeste 23 Noroeste 0 -- -- 73
2020-10-23 10:00:00 14 8 Oeste 14 Sudoeste 0 -- -- 82
2020-10-23 09:00:00 12 12 Oeste 20 Oeste 0 -- -- 90
2020-10-23 08:00:00 11.5 7 Oeste 11 Oeste 0 -- -- 97
2020-10-23 07:00:00 10.5 5 Sur 10 Sudoeste 0 -- -- 97
2020-10-23 06:00:00 9.9 3 Sur 4 Sur 0 -- -- 97
2020-10-23 05:00:00 11.2 0 Calma 5 Sudoeste 0 -- -- 97
2020-10-23 04:00:00 12.7 0 Calma -- -- 0 -- -- 95
2020-10-23 03:00:00 13.7 0 Calma 5 Sudeste 0 -- -- 94
2020-10-23 02:00:00 14.5 3 Sudoeste 17 Sudeste 0 -- -- 91
2020-10-23 01:00:00 14.5 8 Sudeste 18 Sudeste 0 -- -- 90
2020-10-23 00:00:00 14.6 13 Sudeste 28 Sudeste 0 -- -- 89
2020-10-22 23:00:00 14.8 14 Sudeste 31 Sudeste 0 -- -- 88
2020-10-22 22:00:00 15 11 Sudeste 33 Sudeste 0 -- -- 88
2020-10-22 21:00:00 15.4 19 Sudeste 35 Sudeste 0 -- -- 91
2020-10-22 20:00:00 15.7 16 Sudeste 26 Sudeste 1.2 -- -- 91
2020-10-22 19:00:00 16.2 7 Sudoeste 21 Sur 1.4 -- -- 89
2020-10-22 18:00:00 18.3 11 Sur 21 Sudeste 0 -- -- 74
2020-10-22 17:00:00 18.4 12 Sudeste 31 Sudeste 0 -- -- 74
2020-10-22 16:00:00 19 12 Sudeste 28 Sur 0 -- -- 72
2020-10-22 15:00:00 19.4 19 Sur 41 Sudeste 0 -- -- 68
2020-10-22 14:00:00 19.1 23 Sudeste 37 Sur 0 -- -- 72
2020-10-22 13:00:00 18.8 19 Sur 31 Sur 0 -- -- 77
2020-10-22 12:00:00 18.1 14 Sudeste 31 Sur 0 -- -- 80
2020-10-22 11:00:00 18 19 Sur 36 Sur 0 -- -- 79
2020-10-22 10:00:00 16.9 21 Sur 35 Sur 0 -- -- 81
2020-10-22 09:00:00 16.1 23 Sur 36 Sudeste 0 -- -- 81
2020-10-22 08:00:00 15.9 5 Sur 24 Sur 0 -- -- 82
2020-10-22 07:00:00 15.9 10 Sur 22 Sur 0 -- -- 80
2020-10-22 06:00:00 17.1 17 Sur 37 Sur 0 -- -- 71
2020-10-22 05:00:00 17.6 21 Sur 33 Sur 0 -- -- 71
2020-10-22 04:00:00 17.7 9 Sudeste 19 Sur 0 -- -- 64
2020-10-22 03:00:00 17 11 Sur 19 Sur 0 -- -- 69
2020-10-22 02:00:00 15 3 Sudoeste 4 Oeste 0 -- -- 73
2020-10-22 01:00:00 14.5 0 Calma 6 Sudoeste 0 -- -- 75
2020-10-22 00:00:00 15.1 2 Este 5 Sudoeste 0 -- -- 73
2020-10-21 23:00:00 14.3 4 Sudoeste 6 Sudoeste 0 -- -- 75
2020-10-21 22:00:00 14.2 0 Calma 9 Sur 0 -- -- 73
2020-10-21 21:00:00 14.5 3 Sudoeste 6 Sudoeste 0 -- -- 72
2020-10-21 20:00:00 16.8 2 Noroeste 9 Nordeste 0 -- -- 63
2020-10-21 19:00:00 19.6 6 Norte 23 Noroeste 0 -- -- 57
2020-10-21 18:00:00 22.7 9 Noroeste 31 Sudoeste 0 -- -- 46
2020-10-21 17:00:00 24 14 Sudoeste 26 Sur 0 -- -- 38
2020-10-21 16:00:00 23.8 12 Sudoeste 23 Sudoeste 0 -- -- 41
2020-10-21 15:00:00 24.3 11 Sudoeste 24 Sudoeste 0 -- -- 41
2020-10-21 14:00:00 24.7 9 Sudoeste 17 Sudoeste 0 -- -- 40
2020-10-21 13:00:00 23 10 Sur 23 Sudoeste 0 -- -- 55
2020-10-21 12:00:00 23.4 7 Sudoeste 17 Sudoeste 0 -- -- 47
2020-10-21 11:00:00 21.2 10 Sur 21 Sur 0 -- -- 62
2020-10-21 10:00:00 16.7 6 Oeste 28 Sudeste 0 -- -- 82
2020-10-21 09:00:00 16.5 22 Sudeste 39 Sur 0 -- -- 81
2020-10-21 08:00:00 16.3 24 Sur 39 Sudeste 0 -- -- 81
2020-10-21 07:00:00 16.5 18 Sur 42 Sudeste 0 -- -- 80
2020-10-21 06:00:00 16.4 26 Sudeste 48 Sur 0 -- -- 80
2020-10-21 05:00:00 16.4 28 Sur 49 Sur 0 -- -- 80
2020-10-21 04:00:00 16.5 30 Sur 52 Sur 0 -- -- 80
2020-10-21 03:00:00 16.3 27 Sur 63 Sur 0 -- -- 80
2020-10-21 02:00:00 16.1 32 Sur 66 Sudeste 0 -- -- 78
2020-10-21 01:00:00 16.3 41 Sudeste 71 Sudeste 0 -- -- 75
2020-10-21 00:00:00 15.9 37 Sudeste 63 Sur 0 -- -- 76
2020-10-20 23:00:00 15.9 35 Sur 66 Sudeste 0 -- -- 78
2020-10-20 22:00:00 16.2 41 Sur 69 Sudeste 0 -- -- 78
2020-10-20 21:00:00 16.1 35 Sudeste 80 Sudeste 0 -- -- 77
2020-10-20 20:00:00 16.2 36 Sudeste 67 Sur 0 -- -- 75
2020-10-20 19:00:00 16.5 42 Sudeste 73 Sudeste 0 -- -- 75
2020-10-20 18:00:00 17 45 Sudeste 71 Sudeste 0 -- -- 74
2020-10-20 17:00:00 17.5 42 Sudeste 66 Sudeste 0 -- -- 76
2020-10-20 16:00:00 17.3 31 Sudeste 54 Sudeste 0 -- -- 81
2020-10-20 15:00:00 16.8 28 Sudeste 52 Sudeste 0 -- -- 83
2020-10-20 14:00:00 16.4 25 Sudeste 52 Sudeste 0.2 -- -- 86
2020-10-20 13:00:00 15.5 31 Sudeste 56 Sur 0.6 -- -- 88
2020-10-20 12:00:00 15.5 23 Sur 59 Sudeste 0 -- -- 85
2020-10-20 11:00:00 14.9 26 Sudeste 56 Sudeste 0.4 -- -- 87
2020-10-20 10:00:00 14.7 35 Sudeste 59 Sur 0.2 -- -- 86
2020-10-20 09:00:00 15.1 37 Sudeste 60 Sudeste 0 -- -- 82
2020-10-20 08:00:00 14.9 34 Sudeste 59 Sur 0 -- -- 83
2020-10-20 07:00:00 14.7 26 Sudeste 52 Sudeste 0 -- -- 83
2020-10-20 06:00:00 14.8 24 Sudeste 57 Sudeste 0 -- -- 81
2020-10-20 05:00:00 14.9 39 Sudeste 71 Sudeste 0 -- -- 80
2020-10-20 04:00:00 14.4 29 Sudeste 56 Sudeste 0 -- -- 80
2020-10-20 03:00:00 14.3 30 Sudeste 49 Sur 0 -- -- 80
2020-10-20 02:00:00 14 25 Sudeste 52 Sudeste 0 -- -- 81
2020-10-20 01:00:00 14 26 Sudeste 70 Sudeste 0 -- -- 80
2020-10-20 00:00:00 14.4 33 Sudeste 59 Sudeste 0 -- -- 78
2020-10-19 23:00:00 14.7 35 Sudeste 51 Sur 0 -- -- 77
2020-10-19 22:00:00 15.1 24 Sudeste 46 Sudeste 0 -- -- 71
2020-10-19 21:00:00 16.6 24 Sudeste 41 Sudeste 0 -- -- 64
2020-10-19 20:00:00 18 22 Sudeste 44 Sudeste 0 -- -- 59
2020-10-19 19:00:00 19.1 19 Sudeste 44 Sudeste 0 -- -- 57
2020-10-19 18:00:00 20.5 25 Sudeste 48 Sudeste 0 -- -- 51
2020-10-19 17:00:00 21.4 26 Sudeste 46 Sudeste 0 -- -- 50
2020-10-19 16:00:00 20.9 24 Sudeste 41 Sur 0 -- -- 49
2020-10-19 15:00:00 19.7 23 Sur 42 Sudeste 0 -- -- 52
2020-10-19 14:00:00 18.1 19 Sur 44 Sudeste 0 -- -- 59
2020-10-19 13:00:00 16.4 21 Sudeste 36 Sudeste 0 -- -- 65
2020-10-19 12:00:00 15.1 14 Sur 31 Sur 0 -- -- 62
2020-10-19 11:00:00 14.5 14 Sur 38 Sur 0 -- -- 63
2020-10-19 10:00:00 13.4 13 Sur 23 Sur 0 -- -- 73
2020-10-19 09:00:00 10.7 5 Sur 16 Sur 0 -- -- 78
2020-10-19 08:00:00 8.8 2 Noroeste 17 Sudeste 0 -- -- 77
2020-10-19 07:00:00 6.1 0 Calma 5 Sur 0 -- -- 89
2020-10-19 06:00:00 6.4 0 Calma 6 Sur 0 -- -- 85
2020-10-19 05:00:00 6.6 0 Calma 15 Sur 0 -- -- 75
2020-10-19 04:00:00 10.9 10 Sudoeste 22 Sudeste 0 -- -- 72
2020-10-19 03:00:00 12.3 14 Sudeste 24 Sudeste 0 -- -- 58
2020-10-19 02:00:00 7.6 2 Norte 5 Norte 0 -- -- 71
2020-10-19 01:00:00 6.6 0 Calma 5 Sudeste 0 -- -- 75
2020-10-19 00:00:00 7.5 0 Calma 6 Sudeste 0 -- -- 68
2020-10-18 23:00:00 7.8 0 Calma 15 Sur 0 -- -- 68
2020-10-18 22:00:00 11.8 5 Sur 12 Sur 0 -- -- 58
2020-10-18 21:00:00 11.9 5 Sudoeste 11 Sudeste 0 -- -- 59
2020-10-18 20:00:00 15.5 7 Sudeste 11 Sudeste 0 -- -- 49
2020-10-18 19:00:00 18.9 3 Este 7 Este 0 -- -- 38
2020-10-18 18:00:00 19.8 3 Este 9 Este 0 -- -- 37
2020-10-18 17:00:00 19.8 3 Norte 9 Nordeste 0 -- -- 39
2020-10-18 16:00:00 20 5 Norte 13 Norte 0 -- -- 38
2020-10-18 15:00:00 19.6 6 Norte 13 Norte 0 -- -- 40
2020-10-18 14:00:00 18.2 6 Nordeste 12 Norte 0 -- -- 42
2020-10-18 13:00:00 17.2 3 Nordeste 8 Norte 0 -- -- 45
2020-10-18 12:00:00 15 5 Norte 11 Noroeste 0 -- -- 53
2020-10-18 11:00:00 13.1 3 Nordeste 6 Norte 0 -- -- 59
2020-10-18 10:00:00 8.5 0 Calma 5 Sur 0 -- -- 79
2020-10-18 09:00:00 2.7 2 Sudoeste 6 Sudoeste 0 -- -- 88
2020-10-18 08:00:00 1.7 2 Sudoeste 7 Sur 0 -- -- 89
2020-10-18 07:00:00 2.7 5 Sur 9 Sur 0 -- -- 88
2020-10-18 06:00:00 3.3 3 Sur 6 Sudoeste 0 -- -- 85
2020-10-18 05:00:00 3.8 5 Sudoeste 8 Sudoeste 0 -- -- 84
2020-10-18 04:00:00 4.3 3 Sudoeste 8 Sudoeste 0 -- -- 81
2020-10-18 03:00:00 4.8 4 Sudoeste 6 Sudoeste 0 -- -- 80
2020-10-18 02:00:00 4.8 3 Sur 8 Sudoeste 0 -- -- 81
2020-10-18 01:00:00 5.2 3 Sur 6 Sudoeste 0 -- -- 78
2020-10-18 00:00:00 5.5 3 Sudoeste 8 Sur 0 -- -- 78
2020-10-17 23:00:00 6.8 7 Sudoeste 10 Sudoeste 0 -- -- 73
2020-10-17 22:00:00 8.6 5 Sudoeste 9 Sudoeste 0 -- -- 65
2020-10-17 21:00:00 9.6 6 Sur 10 Sudoeste 0 -- -- 61
2020-10-17 20:00:00 11.5 2 Sudoeste 10 Norte 0 -- -- 56
2020-10-17 19:00:00 14.9 9 Norte 22 Nordeste 0 -- -- 47
2020-10-17 18:00:00 17.7 12 Norte 22 Norte 0 -- -- 40
2020-10-17 17:00:00 18.5 8 Norte 19 Norte 0 -- -- 37
2020-10-17 16:00:00 17.9 9 Norte 17 Noroeste 0 -- -- 40
2020-10-17 15:00:00 17.8 7 Norte 19 Nordeste 0 -- -- 42
2020-10-17 14:00:00 16.7 6 Norte 19 Norte 0 -- -- 44
2020-10-17 13:00:00 14.8 8 Noroeste 15 Noroeste 0 -- -- 51
2020-10-17 12:00:00 12.8 5 Norte 15 Noroeste 0 -- -- 56
2020-10-17 11:00:00 11 4 Noroeste 10 Noroeste 0 -- -- 64
2020-10-17 10:00:00 7.8 4 Sudoeste 8 Sur 0 -- -- 77
2020-10-17 09:00:00 2.2 6 Sudoeste 8 Sudoeste 0 -- -- 91
2020-10-17 08:00:00 0.5 5 Sur 8 Sudoeste 0 -- -- 92
2020-10-17 07:00:00 1 4 Sudoeste 5 Sur 0 -- -- 92
2020-10-17 06:00:00 1.3 4 Sudoeste 6 Sudoeste 0 -- -- 90
2020-10-17 05:00:00 1.7 4 Sudoeste 8 Sudoeste 0 -- -- 89
2020-10-17 04:00:00 2.4 5 Sudoeste 9 Sudoeste 0 -- -- 88
2020-10-17 03:00:00 3.2 5 Sudoeste 6 Sudoeste 0 -- -- 86
2020-10-17 02:00:00 4 5 Sur 7 Sudoeste 0 -- -- 82
2020-10-17 01:00:00 4.8 5 Sudoeste 9 Sur 0 -- -- 81
2020-10-17 00:00:00 3.8 6 Sudoeste 9 Sudoeste 0 -- -- 80
2020-10-16 23:00:00 4.5 8 Sudoeste 11 Sudoeste 0 -- -- 77
2020-10-16 22:00:00 5.1 5 Sudoeste 8 Sudoeste 0 -- -- 74
2020-10-16 21:00:00 6.8 4 Sur 6 Sudoeste 0 -- -- 67
2020-10-16 20:00:00 9.8 4 Nordeste 20 Norte 0 -- -- 58
2020-10-16 19:00:00 13.4 13 Norte 21 Norte 0 -- -- 46
2020-10-16 18:00:00 15.5 8 Norte 21 Norte 0 -- -- 40
2020-10-16 17:00:00 16.1 11 Norte 23 Norte 0 -- -- 40
2020-10-16 16:00:00 16.8 11 Norte 23 Norte 0 -- -- 37
2020-10-16 15:00:00 15.6 7 Nordeste 23 Norte 0 -- -- 40
2020-10-16 14:00:00 15.4 8 Norte 20 Norte 0 -- -- 40
2020-10-16 13:00:00 13.9 8 Nordeste 22 Nordeste 0 -- -- 44
2020-10-16 12:00:00 12.4 8 Nordeste 22 Norte 0 -- -- 51
2020-10-16 11:00:00 10.8 13 Norte 20 Nordeste 0 -- -- 57
2020-10-16 10:00:00 8.8 0 Calma 7 Sudoeste 0 -- -- 73
2020-10-16 09:00:00 3.5 5 Sudoeste 8 Sudoeste 0 -- -- 87
2020-10-16 08:00:00 2.9 5 Sur 10 Sur 0 -- -- 90
2020-10-16 07:00:00 2.8 0 Calma 7 Sudoeste 0 -- -- 89
2020-10-16 06:00:00 3.8 3 Norte 11 Noroeste 0 -- -- 90
2020-10-16 05:00:00 3.4 5 Sudoeste 8 Sur 0 -- -- 88
2020-10-16 04:00:00 3.5 0 Calma 8 Sudoeste 0 -- -- 86
2020-10-16 03:00:00 5.1 6 Norte 16 Norte 0 -- -- 81
2020-10-16 02:00:00 6 10 Norte 16 Norte 0 -- -- 78
2020-10-16 01:00:00 4.4 0 Calma 6 Noroeste 0 -- -- 82
2020-10-16 00:00:00 5.2 2 Noroeste 14 Norte 0 -- -- 77
2020-10-15 23:00:00 6.7 8 Norte 18 Norte 0 -- -- 73
2020-10-15 22:00:00 7.7 10 Norte 22 Norte 0 -- -- 68
2020-10-15 21:00:00 8.5 12 Norte 28 Norte 0 -- -- 68
2020-10-15 20:00:00 9.7 18 Norte 33 Norte 0 -- -- 63
2020-10-15 19:00:00 11.7 24 Norte 48 Norte 0 -- -- 54
2020-10-15 18:00:00 13.5 24 Norte 48 Norte 0 -- -- 50
2020-10-15 17:00:00 14.6 27 Norte 50 Norte 0 -- -- 45
2020-10-15 16:00:00 14.9 34 Norte 52 Norte 0 -- -- 42
2020-10-15 15:00:00 15 31 Norte 53 Nordeste 0 -- -- 40
2020-10-15 14:00:00 15 31 Norte 49 Noroeste 0 -- -- 44
2020-10-15 13:00:00 13.6 27 Norte 46 Norte 0 -- -- 52
2020-10-15 12:00:00 13 24 Norte 49 Norte 0 -- -- 58
2020-10-15 11:00:00 11.2 28 Norte 46 Norte 0 -- -- 63
2020-10-15 10:00:00 10.1 15 Norte 31 Norte 0 -- -- 69
2020-10-15 09:00:00 7.8 13 Norte 26 Norte 0 -- -- 78
2020-10-15 08:00:00 7.2 18 Norte 30 Norte 0 -- -- 81
2020-10-15 07:00:00 7.2 15 Norte 31 Noroeste 0 -- -- 80
2020-10-15 06:00:00 6.9 17 Norte 38 Norte 0 -- -- 83
2020-10-15 05:00:00 7 17 Norte 27 Norte 0 -- -- 83
2020-10-15 04:00:00 6.8 14 Norte 28 Norte 0 -- -- 83
2020-10-15 03:00:00 6.5 11 Noroeste 23 Norte 0 -- -- 84
2020-10-15 02:00:00 7 12 Norte 24 Norte 0 -- -- 83
2020-10-15 01:00:00 7.3 13 Norte 30 Norte 0 -- -- 79
2020-10-15 00:00:00 8 18 Norte 31 Norte 0 -- -- 78
2020-10-14 23:00:00 8.2 19 Norte 31 Noroeste 0 -- -- 79
2020-10-14 22:00:00 8.4 13 Noroeste 28 Norte 0 -- -- 79
2020-10-14 21:00:00 9.3 17 Norte 31 Noroeste 0 -- -- 69
2020-10-14 20:00:00 9.9 17 Norte 40 Norte 0 -- -- 67
2020-10-14 19:00:00 11.5 23 Norte 54 Norte 0 -- -- 59
2020-10-14 18:00:00 13.1 37 Norte 56 Norte 0 -- -- 52
2020-10-14 17:00:00 13.7 33 Norte 49 Norte 0 -- -- 52
2020-10-14 16:00:00 13.9 31 Norte 52 Norte 0 -- -- 52
2020-10-14 15:00:00 14.6 26 Norte 51 Norte 0 -- -- 52
2020-10-14 14:00:00 13.9 31 Norte 48 Nordeste 0 -- -- 56
2020-10-14 13:00:00 13.8 31 Norte 44 Norte 0 -- -- 54
2020-10-14 12:00:00 13.6 27 Norte 44 Norte 0 -- -- 57
2020-10-14 11:00:00 12.2 28 Norte 41 Norte 0 -- -- 62
2020-10-14 10:00:00 10.6 14 Norte 24 Norte 0 -- -- 75
2020-10-14 09:00:00 9.2 9 Norte 18 Noroeste 0 -- -- 81
2020-10-14 08:00:00 8.4 11 Norte 25 Norte 0 -- -- 83
2020-10-14 07:00:00 8.6 12 Noroeste 23 Norte 0 -- -- 83
2020-10-14 06:00:00 8.2 11 Norte 22 Norte 0 -- -- 84
2020-10-14 05:00:00 8.8 12 Norte 23 Norte 0 -- -- 84
2020-10-14 04:00:00 9.9 9 Norte 21 Noroeste 0 -- -- 83
2020-10-14 03:00:00 10.9 11 Noroeste 26 Norte 0 -- -- 78
2020-10-14 02:00:00 11.2 8 Norte 29 Norte 0 -- -- 77
2020-10-14 01:00:00 12.1 13 Norte 24 Norte 0 -- -- 70
2020-10-14 00:00:00 10.9 5 Noroeste 13 Noroeste 0 -- -- 82
2020-10-13 23:00:00 12.5 8 Noroeste 22 Noroeste 0 -- -- 66
2020-10-13 22:00:00 12.8 15 Norte 25 Norte 0 -- -- 62
2020-10-13 21:00:00 12.7 15 Norte 30 Norte 0 -- -- 61
2020-10-13 20:00:00 13.4 12 Norte 35 Nordeste 0 -- -- 58
2020-10-13 19:00:00 15 23 Nordeste 57 Nordeste 0 -- -- 53
2020-10-13 18:00:00 16.9 33 Nordeste 53 Nordeste 0 -- -- 48
2020-10-13 17:00:00 18.4 27 Nordeste 56 Norte 0 -- -- 44
2020-10-13 16:00:00 18.5 34 Norte 59 Nordeste 0 -- -- 44
2020-10-13 15:00:00 18.7 35 Norte 49 Norte 0 -- -- 48
2020-10-13 14:00:00 17.6 32 Norte 62 Norte 0 -- -- 55
2020-10-13 13:00:00 17.3 32 Norte 53 Norte 0 -- -- 57
2020-10-13 12:00:00 17.3 28 Norte 46 Norte 0 -- -- 58
2020-10-13 11:00:00 16.5 18 Norte 28 Norte 0 -- -- 62
2020-10-13 10:00:00 13.6 15 Norte 26 Noroeste 0 -- -- 79
2020-10-13 09:00:00 10.5 6 Norte 16 Norte 0 -- -- 90
2020-10-13 08:00:00 9.6 0 Calma 12 Este 0 -- -- 89
2020-10-13 07:00:00 10.1 7 Norte 16 Norte 0 -- -- 88
2020-10-13 06:00:00 10.7 6 Norte 19 Noroeste 0 -- -- 84
2020-10-13 05:00:00 11.1 6 Norte 21 Norte 0 -- -- 81
2020-10-13 04:00:00 -- -- -- -- -- -- -- -- --
2020-10-13 03:00:00 11.1 0 Calma 8 Oeste 0 -- -- 71
2020-10-13 02:00:00 10.4 2 Noroeste 13 Noroeste 0 -- -- 72
2020-10-13 01:00:00 -- -- -- -- -- -- -- -- --
2020-10-13 00:00:00 11.7 5 Norte 22 Norte 0 -- -- 63
2020-10-12 23:00:00 12.2 8 Norte 33 Norte 0 -- -- 60
2020-10-12 22:00:00 12.5 29 Norte 46 Norte 0 -- -- 60
2020-10-12 21:00:00 12.2 24 Norte 43 Norte 0 -- -- 62
2020-10-12 20:00:00 12.4 22 Norte 45 Norte 0 -- -- 62
2020-10-12 19:00:00 14 22 Norte 50 Norte 0 -- -- 55
2020-10-12 18:00:00 15.9 31 Norte 53 Norte 0 -- -- 45
2020-10-12 17:00:00 16.3 34 Norte 53 Norte 0 -- -- 43
2020-10-12 16:00:00 16.9 35 Norte 61 Norte 0 -- -- 43
2020-10-12 15:00:00 17.5 32 Norte 63 Norte 0 -- -- 41
2020-10-12 14:00:00 17.8 27 Norte 48 Norte 0 -- -- 36
2020-10-12 13:00:00 16.7 27 Norte 50 Norte 0 -- -- 39
2020-10-12 12:00:00 15.6 28 Norte 47 Norte 0 -- -- 46
2020-10-12 11:00:00 13.6 28 Norte 48 Norte 0 -- -- 58
2020-10-12 10:00:00 11.8 18 Norte 32 Norte 0 -- -- 70
2020-10-12 09:00:00 9.4 10 Norte 24 Noroeste 0 -- -- 83
2020-10-12 08:00:00 8.5 11 Norte 26 Norte 0 -- -- 85
2020-10-12 07:00:00 8.8 18 Norte 31 Norte 0 -- -- 82
2020-10-12 06:00:00 9 18 Norte 29 Norte 0 -- -- 82
2020-10-12 05:00:00 8.6 10 Norte 21 Norte 0 -- -- 82
2020-10-12 04:00:00 -- -- -- -- -- -- -- -- --
2020-10-12 03:00:00 8.4 8 Norte 35 Norte 0 -- -- 82
2020-10-12 02:00:00 9.2 19 Norte 35 Norte 0 -- -- 78
2020-10-12 01:00:00 9.7 16 Norte 32 Norte 0 -- -- 75
2020-10-12 00:00:00 9.9 20 Norte 40 Norte 0 -- -- 74
2020-10-11 23:00:00 10 16 Norte 40 Noroeste 0 -- -- 73
2020-10-11 22:00:00 10.4 21 Norte 38 Norte 0 -- -- 71
2020-10-11 21:00:00 -- -- -- -- -- -- -- -- --
2020-10-11 20:00:00 -- -- -- -- -- -- -- -- --
2020-10-11 19:00:00 13 27 Norte 58 Norte 0 -- -- 58
2020-10-11 18:00:00 14.3 43 Norte 68 Norte 0 -- -- 54
2020-10-11 17:00:00 15.7 45 Norte 64 Norte 0 -- -- 50
2020-10-11 16:00:00 16 36 Norte 69 Norte 0 -- -- 48
2020-10-11 15:00:00 16.2 41 Norte 67 Norte 0 -- -- 47
2020-10-11 14:00:00 15.9 41 Norte 64 Nordeste 0 -- -- 49
2020-10-11 13:00:00 14.7 39 Norte 93 Norte 0 -- -- 53
2020-10-11 12:00:00 14.7 35 Norte 56 Norte 0 -- -- 51
2020-10-11 11:00:00 12.9 35 Norte 54 Norte 0 -- -- 57
2020-10-11 10:00:00 11.5 31 Norte 48 Norte 0 -- -- 56
2020-10-11 09:00:00 10 22 Norte 42 Norte 0 -- -- 60
2020-10-11 08:00:00 9 18 Norte 39 Norte 0 -- -- 64
2020-10-11 07:00:00 9.2 9 Norte 32 Nordeste 0 -- -- 64
2020-10-11 06:00:00 9.7 19 Norte 35 Norte 0 -- -- 64
2020-10-11 05:00:00 9.9 10 Norte 37 Norte 0 -- -- 63
2020-10-11 04:00:00 10.4 14 Norte 28 Norte 0 -- -- 66
2020-10-11 03:00:00 10.1 12 Norte 28 Norte 0 -- -- 74
2020-10-11 02:00:00 11.2 15 Norte 30 Norte 0 -- -- 69
2020-10-11 01:00:00 11.1 13 Norte 45 Norte 0 -- -- 68
2020-10-11 00:00:00 12.3 20 Norte 51 Norte 0 -- -- 63
2020-10-10 23:00:00 12 19 Norte 39 Norte 0 -- -- 65
2020-10-10 22:00:00 12 13 Norte 36 Norte 0 -- -- 64
2020-10-10 21:00:00 13.3 18 Norte 36 Norte 0 -- -- 61
2020-10-10 20:00:00 14.8 20 Norte 48 Norte 0 -- -- 57
2020-10-10 19:00:00 16.6 27 Norte 45 Norte 0 -- -- 50
2020-10-10 18:00:00 18.6 26 Norte 48 Norte 0 -- -- 44
2020-10-10 17:00:00 19.6 30 Norte 53 Norte 0 -- -- 44
2020-10-10 16:00:00 21.3 31 Norte 52 Norte 0 -- -- 46
2020-10-10 15:00:00 20.5 26 Norte 44 Norte 0 -- -- 55
2020-10-10 14:00:00 21.2 21 Norte 36 Norte 0 -- -- 50
2020-10-10 13:00:00 20.7 16 Norte 26 Norte 0 -- -- 51
2020-10-10 12:00:00 19.1 11 Norte 21 Norte 0 -- -- 58
2020-10-10 11:00:00 16.7 11 Norte 27 Norte 0 -- -- 66
2020-10-10 10:00:00 15.2 7 Norte 20 Norte 0 -- -- 73
2020-10-10 09:00:00 10.4 0 Calma 5 Sudoeste 0 -- -- 91
2020-10-10 08:00:00 11.7 2 Este 11 Norte 0 -- -- 89
2020-10-10 07:00:00 12 3 Norte 15 Norte 0 -- -- 88
2020-10-10 06:00:00 12.4 4 Norte 13 Nordeste 0 -- -- 89
2020-10-10 05:00:00 11.7 3 Sur 9 Sudoeste 0 -- -- 92
2020-10-10 04:00:00 11.5 5 Sudoeste 7 Sudoeste 0 -- -- 91
2020-10-10 03:00:00 12.2 4 Sudoeste 6 Sudoeste 0 -- -- 88
2020-10-10 02:00:00 14.1 4 Sudoeste 15 Norte 0 -- -- 83
2020-10-10 01:00:00 15.3 7 Norte 14 Norte 0 -- -- 79
2020-10-10 00:00:00 14.9 4 Sur 9 Sudoeste 0 -- -- 86
2020-10-09 23:00:00 15.4 7 Sudoeste 9 Sudoeste 0 -- -- 84
2020-10-09 22:00:00 16.2 5 Sudoeste 8 Sudoeste 0 -- -- 79
2020-10-09 21:00:00 17.3 2 Sur 6 Norte 0 -- -- 73
2020-10-09 20:00:00 18.8 0 Calma 5 Noroeste 0 -- -- 63
2020-10-09 19:00:00 24.2 3 Norte 6 Norte 0 -- -- 46
2020-10-09 18:00:00 25.7 2 Norte 9 Norte 0 -- -- 43
2020-10-09 17:00:00 25.6 3 Norte 10 Nordeste 0 -- -- 46
2020-10-09 16:00:00 24.8 6 Norte 14 Noroeste 0 -- -- 51
2020-10-09 15:00:00 24 6 Nordeste 18 Norte 0 -- -- 58
2020-10-09 14:00:00 22.9 6 Norte 14 Nordeste 0 -- -- 64
2020-10-09 13:00:00 20.9 4 Norte 10 Nordeste 0 -- -- 73
2020-10-09 12:00:00 18.3 3 Nordeste 9 Nordeste 0 -- -- 83
2020-10-09 11:00:00 16.8 3 Nordeste 7 Este 0 -- -- 89
2020-10-09 10:00:00 15.8 0 Calma 4 Sudeste 0 -- -- 95
2020-10-09 09:00:00 12.6 4 Sudoeste 6 Sudoeste 0 -- -- 96
2020-10-09 08:00:00 11.7 4 Sudoeste 6 Sur 0 -- -- 95
2020-10-09 07:00:00 11.7 3 Sudoeste 8 Sudoeste 0 -- -- 94
2020-10-09 06:00:00 12.4 3 Sudoeste 8 Sudoeste 0 -- -- 93
2020-10-09 05:00:00 13.5 2 Sur 9 Sudeste 0 -- -- 92
2020-10-09 04:00:00 15.6 0 Calma 13 Sudoeste 0 -- -- 87
2020-10-09 03:00:00 15.7 6 Oeste 12 Sur 0 -- -- 85
2020-10-09 02:00:00 15.9 0 Calma 10 Este 0 -- -- 75
2020-10-09 01:00:00 17.6 5 Sur 15 Sudeste 0 -- -- 73
2020-10-09 00:00:00 14.6 0 Calma 5 Sudeste 0 -- -- 79
2020-10-08 23:00:00 14.7 0 Calma 5 Sudoeste 0 -- -- 77
2020-10-08 22:00:00 16.3 2 Norte 9 Sur 0 -- -- 72
2020-10-08 21:00:00 18 4 Sudoeste 10 Sur 0 -- -- 67
2020-10-08 20:00:00 20.7 6 Sudoeste 14 Sur 0 -- -- 59
2020-10-08 19:00:00 22.7 11 Sur 19 Sudeste 0 -- -- 53
2020-10-08 18:00:00 24.3 9 Sudeste 18 Sudeste 0 -- -- 49
2020-10-08 17:00:00 26.5 3 Nordeste 11 Sudeste 0 -- -- 43
2020-10-08 16:00:00 25.3 3 Este 13 Oeste 0 -- -- 44
2020-10-08 15:00:00 24.8 7 Sudoeste 18 Sudoeste 0 -- -- 46
2020-10-08 14:00:00 24.2 4 Sudoeste 13 Oeste 0 -- -- 48
2020-10-08 13:00:00 21.8 3 Norte 8 Nordeste 0 -- -- 55
2020-10-08 12:00:00 20.9 3 Sudoeste 9 Norte 0 -- -- 59
2020-10-08 11:00:00 17.3 2 Norte 5 Sudoeste 0 -- -- 72
2020-10-08 10:00:00 13.9 2 Sudoeste 5 Sudoeste 0 -- -- 84
2020-10-08 09:00:00 9.4 0 Calma 5 Sur 0 -- -- 95
2020-10-08 08:00:00 8.1 3 Sudoeste 6 Sudoeste 0 -- -- 96
2020-10-08 07:00:00 7.6 0 Calma 8 Sudoeste 0 -- -- 94
2020-10-08 06:00:00 8.8 2 Sudoeste 7 Sur 0 -- -- 93
2020-10-08 05:00:00 9.9 5 Sur 9 Sudoeste 0 -- -- 93
2020-10-08 04:00:00 11.3 2 Sur 15 Noroeste 0 -- -- 88
2020-10-08 03:00:00 12 4 Sur 18 Oeste 0 -- -- 90
2020-10-08 02:00:00 12.5 4 Sudoeste 13 Sur 0 -- -- 87
2020-10-08 01:00:00 13.6 6 Noroeste 15 Sur 0 -- -- 83
2020-10-08 00:00:00 13.9 7 Oeste 24 Noroeste 0 -- -- 82
2020-10-07 23:00:00 13.9 10 Noroeste 22 Nordeste 0 -- -- 78
2020-10-07 22:00:00 15.5 3 Nordeste 23 Nordeste 0 -- -- 73
2020-10-07 21:00:00 17.3 14 Norte 33 Norte 0 -- -- 67
2020-10-07 20:00:00 18.2 17 Norte 39 Nordeste 0 -- -- 64
2020-10-07 19:00:00 20 22 Norte 58 Norte 0 -- -- 58
2020-10-07 18:00:00 21.4 34 Norte 51 Norte 0 -- -- 56
2020-10-07 17:00:00 21.9 36 Norte 54 Norte 0 -- -- 54
2020-10-07 16:00:00 22.6 29 Norte 46 Norte 0 -- -- 54
2020-10-07 15:00:00 22.5 30 Norte 69 Norte 0 -- -- 55
2020-10-07 14:00:00 22.2 32 Norte 49 Norte 0 -- -- 57
2020-10-07 13:00:00 21.6 26 Norte 47 Norte 0 -- -- 60
2020-10-07 12:00:00 21.7 22 Norte 37 Noroeste 0 -- -- 63
2020-10-07 11:00:00 19.6 19 Norte 31 Norte 0 -- -- 70
2020-10-07 10:00:00 18.6 11 Noroeste 24 Noroeste 0 -- -- 75
2020-10-07 09:00:00 15.4 13 Noroeste 26 Norte 0 -- -- 85
2020-10-07 08:00:00 14.5 12 Noroeste 20 Oeste 0 -- -- 91
2020-10-07 07:00:00 13.2 2 Nordeste 4 Sur 0 -- -- 93
2020-10-07 06:00:00 11.8 0 Calma 9 Sudoeste 0 -- -- 93
2020-10-07 05:00:00 11.4 3 Sur 6 Sudoeste 0 -- -- 94
2020-10-07 04:00:00 11.6 5 Sudoeste 6 Sudoeste 0 -- -- 92
2020-10-07 03:00:00 11.5 4 Sudoeste 5 Sudoeste 0 -- -- 93
2020-10-07 02:00:00 12.7 0 Calma 5 Sur 0 -- -- 91
2020-10-07 01:00:00 13.2 0 Calma 6 Sudoeste 0 -- -- 87
2020-10-07 00:00:00 14.3 3 Sudoeste 6 Sudoeste 0 -- -- 85
2020-10-06 23:00:00 15.4 0 Calma 6 Sudoeste 0 -- -- 82
2020-10-06 22:00:00 17.7 2 Sudeste 6 Sur 0 -- -- 74
2020-10-06 21:00:00 18.2 3 Oeste 10 Noroeste 0 -- -- 71
2020-10-06 20:00:00 19.8 6 Noroeste 13 Norte 0 -- -- 66
2020-10-06 19:00:00 21.5 6 Norte 21 Nordeste 0 -- -- 60
2020-10-06 18:00:00 22.9 11 Norte 21 Nordeste 0 -- -- 53
2020-10-06 17:00:00 23.5 10 Norte 23 Norte 0 -- -- 51
2020-10-06 16:00:00 24.8 13 Norte 25 Norte 0 -- -- 46
2020-10-06 15:00:00 23.7 13 Noroeste 26 Noroeste 0 -- -- 48
2020-10-06 14:00:00 23.4 10 Noroeste 24 Noroeste 0 -- -- 49
2020-10-06 13:00:00 21.8 11 Noroeste 19 Norte 0 -- -- 49
2020-10-06 12:00:00 20.5 9 Norte 17 Noroeste 0 -- -- 52
2020-10-06 11:00:00 18.4 6 Norte 13 Noroeste 0 -- -- 56
2020-10-06 10:00:00 15.9 0 Calma 7 Sudoeste 0 -- -- 62
2020-10-06 09:00:00 11.4 4 Sur 6 Sur 0 -- -- 83
2020-10-06 08:00:00 10.1 0 Calma 3 Sudoeste 0 -- -- 85
2020-10-06 07:00:00 10 0 Calma 6 Sur 0 -- -- 84
2020-10-06 06:00:00 8.3 2 Sudoeste 6 Sudoeste 0 -- -- 88
2020-10-06 05:00:00 7.7 0 Calma 4 Sur 0 -- -- 89
2020-10-06 04:00:00 7.4 0 Calma 3 Sudeste 0 -- -- 89
2020-10-06 03:00:00 6.6 0 Calma 2 Norte 0 -- -- 89
2020-10-06 02:00:00 7 0 Calma 7 Sudoeste 0 -- -- 86
2020-10-06 01:00:00 8.6 3 Sur 5 Sur 0 -- -- 81
2020-10-06 00:00:00 8.1 3 Sur 7 Sur 0 -- -- 83
2020-10-05 23:00:00 8.4 7 Sudoeste 9 Sudoeste 0 -- -- 83
2020-10-05 22:00:00 9 5 Sudoeste 9 Sur 0 -- -- 80
2020-10-05 21:00:00 10.4 5 Sudoeste 8 Sudoeste 0 -- -- 76
2020-10-05 20:00:00 12.8 0 Calma 17 Norte 0 -- -- 65
2020-10-05 19:00:00 16.9 12 Norte 33 Norte 0 -- -- 50
2020-10-05 18:00:00 18.1 20 Norte 31 Nordeste 0 -- -- 46
2020-10-05 17:00:00 18.6 18 Norte 42 Norte 0 -- -- 46
2020-10-05 16:00:00 18.4 23 Norte 43 Norte 0 -- -- 47
2020-10-05 15:00:00 18.3 22 Norte 41 Norte 0 -- -- 48
2020-10-05 14:00:00 17.2 24 Norte 46 Norte 0 -- -- 53
2020-10-05 13:00:00 16.3 23 Norte 39 Norte 0 -- -- 55
2020-10-05 12:00:00 15.6 18 Norte 33 Norte 0 -- -- 64
2020-10-05 11:00:00 13.3 10 Norte 19 Norte 0 -- -- 77
2020-10-05 10:00:00 11.4 3 Este 6 Sur 0 -- -- 81
2020-10-05 09:00:00 7.7 3 Este 6 Sur 0 -- -- 98
2020-10-05 08:00:00 6.9 0 Calma 6 Oeste 0 -- -- 97
2020-10-05 07:00:00 5 0 Calma 8 Sudoeste 0 -- -- 97
2020-10-05 06:00:00 5 4 Sudoeste 7 Sur 0 -- -- 96
2020-10-05 05:00:00 5.9 2 Sudoeste 8 Sudoeste 0 -- -- 95
2020-10-05 04:00:00 6.3 5 Sudoeste 7 Sudoeste 0 -- -- 96
2020-10-05 03:00:00 5.8 5 Sudoeste 7 Sur 0 -- -- 96
2020-10-05 02:00:00 6.4 5 Sudoeste 7 Sur 0 -- -- 95
2020-10-05 01:00:00 6.4 3 Sudoeste 6 Sur 0 -- -- 96
2020-10-05 00:00:00 6.7 5 Sudoeste 9 Sudoeste 0 -- -- 95
2020-10-04 23:00:00 7 3 Sudoeste 7 Sur 0 -- -- 94
2020-10-04 22:00:00 8.4 4 Sur 13 Sudoeste 0 -- -- 93
2020-10-04 21:00:00 9.4 4 Sur 9 Sur 0 -- -- 89
2020-10-04 20:00:00 10.2 3 Oeste 19 Norte 0 -- -- 86
2020-10-04 19:00:00 12 21 Norte 43 Norte 1 -- -- 78
2020-10-04 18:00:00 12.7 7 Norte 16 Nordeste 0.4 -- -- 82
2020-10-04 17:00:00 13.1 4 Nordeste 27 Nordeste 0 -- -- 76
2020-10-04 16:00:00 15 17 Nordeste 28 Norte 0 -- -- 63
2020-10-04 15:00:00 16.5 4 Nordeste 23 Este 0 -- -- 59
2020-10-04 14:00:00 14 15 Este 23 Este 0 -- -- 69
2020-10-04 13:00:00 14.8 4 Nordeste 8 Norte 0 -- -- 61
2020-10-04 12:00:00 14 4 Norte 11 Norte 0 -- -- 62
2020-10-04 11:00:00 12.8 9 Norte 17 Oeste 0 -- -- 67
2020-10-04 10:00:00 12.8 11 Oeste 18 Oeste 0 -- -- 66
2020-10-04 09:00:00 8.4 6 Sudoeste 12 Sudoeste 0 -- -- 84
2020-10-04 08:00:00 6.5 8 Sudoeste 10 Sudoeste 0 -- -- 87
2020-10-04 07:00:00 7.1 2 Sur 6 Sudoeste 0 -- -- 85
2020-10-04 06:00:00 5.7 4 Sudoeste 5 Sudoeste 0 -- -- 85
2020-10-04 05:00:00 7 4 Sur 10 Sur 0 -- -- 81
2020-10-04 04:00:00 7.6 5 Sur 11 Sudoeste 0 -- -- 79
2020-10-04 03:00:00 7.4 6 Sur 11 Sudoeste 0 -- -- 79
2020-10-04 02:00:00 7.6 5 Sudoeste 9 Sur 0 -- -- 80
2020-10-04 01:00:00 10.1 5 Sudoeste 14 Sudoeste 0 -- -- 71
2020-10-04 00:00:00 10.1 8 Sudoeste 15 Oeste 0 -- -- 69
2020-10-03 23:00:00 9.5 6 Oeste 8 Noroeste 0 -- -- 72
2020-10-03 22:00:00 10.3 4 Sudoeste 10 Sudoeste 0 -- -- 67
2020-10-03 21:00:00 12 8 Oeste 14 Oeste 0 -- -- 62
2020-10-03 20:00:00 13.6 11 Noroeste 30 Noroeste 0 -- -- 56
2020-10-03 19:00:00 16.2 18 Noroeste 40 Noroeste 0 -- -- 49
2020-10-03 18:00:00 16.9 17 Noroeste 32 Noroeste 0 -- -- 45
2020-10-03 17:00:00 17 21 Norte 36 Norte 0 -- -- 48
2020-10-03 16:00:00 17.8 21 Norte 41 Norte 0 -- -- 46
2020-10-03 15:00:00 16.3 26 Norte 41 Norte 0 -- -- 50
2020-10-03 14:00:00 15.6 12 Norte 27 Norte 0 -- -- 53
2020-10-03 13:00:00 13.7 8 Norte 15 Nordeste 0 -- -- 65
2020-10-03 12:00:00 11.8 11 Nordeste 21 Nordeste 0 -- -- 71
2020-10-03 11:00:00 12.4 7 Norte 20 Norte 0 -- -- 61
2020-10-03 10:00:00 10.2 10 Noroeste 22 Noroeste 0 -- -- 69
2020-10-03 09:00:00 9.7 13 Noroeste 24 Noroeste 0 -- -- 71
2020-10-03 08:00:00 8.4 16 Noroeste 29 Noroeste 0 -- -- 73
2020-10-03 07:00:00 8 18 Noroeste 30 Noroeste 0 -- -- 75
2020-10-03 06:00:00 8.4 17 Noroeste 25 Noroeste 0 -- -- 75
2020-10-03 05:00:00 6.6 4 Sur 13 Noroeste 0 -- -- 82
2020-10-03 04:00:00 8.6 10 Noroeste 15 Noroeste 0 -- -- 73
2020-10-03 03:00:00 8.7 9 Oeste 15 Noroeste 0 -- -- 76
2020-10-03 02:00:00 7.4 0 Calma 8 Sur 0 -- -- 82
2020-10-03 01:00:00 7 5 Noroeste 11 Noroeste 0 -- -- 85
2020-10-03 00:00:00 5.9 7 Sur 10 Sur 0 -- -- 86
2020-10-02 23:00:00 6.2 3 Sudoeste 10 Sudoeste 0 -- -- 84
2020-10-02 22:00:00 7.5 2 Este 11 Norte 0 -- -- 79
2020-10-02 21:00:00 8.6 8 Norte 21 Norte 0 -- -- 73
2020-10-02 20:00:00 9.9 13 Norte 28 Norte 0 -- -- 69
2020-10-02 19:00:00 11.4 17 Norte 38 Norte 0 -- -- 63
2020-10-02 18:00:00 13 17 Noroeste 30 Noroeste 0 -- -- 73
2020-10-02 17:00:00 12.5 15 Noroeste 27 Noroeste 0 -- -- 78
2020-10-02 16:00:00 11.3 8 Noroeste 25 Noroeste 0 -- -- 86
2020-10-02 15:00:00 9.8 13 Noroeste 23 Noroeste 0 -- -- 86
2020-10-02 14:00:00 9.3 8 Norte 33 Nordeste 1.4 -- -- 90
2020-10-02 13:00:00 9.3 20 Norte 54 Norte 1.2 -- -- 91
2020-10-02 12:00:00 11.2 34 Norte 51 Norte 1.4 -- -- 87
2020-10-02 11:00:00 14 12 Noroeste 31 Nordeste 2 -- -- 93
2020-10-02 10:00:00 13.7 18 Norte 36 Noroeste 3.4 -- -- 90
2020-10-02 09:00:00 14.3 8 Oeste 14 Oeste 1 -- -- 84
2020-10-02 08:00:00 14.8 6 Sudoeste 16 Sudoeste 0.4 -- -- 78
2020-10-02 07:00:00 15.6 6 Sudoeste 19 Sudoeste 0.2 -- -- 70
2020-10-02 06:00:00 16.3 11 Sudoeste 19 Sudoeste 0 -- -- 64
2020-10-02 05:00:00 15.1 4 Sudoeste 9 Oeste 0 -- -- 77
2020-10-02 04:00:00 16.1 6 Oeste 17 Oeste 0 -- -- 67
2020-10-02 03:00:00 15 3 Noroeste 9 Sudoeste 0 -- -- 66
2020-10-02 02:00:00 16.2 6 Oeste 23 Sudoeste 0 -- -- 61
2020-10-02 01:00:00 15.8 10 Oeste 14 Sudoeste 0 -- -- 65
2020-10-02 00:00:00 14.8 5 Noroeste 10 Oeste 0 -- -- 68
2020-10-01 23:00:00 13.5 4 Sudoeste 7 Sudoeste 0 -- -- 71
2020-10-01 22:00:00 14 6 Sudoeste 9 Sudoeste 0 -- -- 69
2020-10-01 21:00:00 15 5 Sur 9 Sudoeste 0 -- -- 65
2020-10-01 20:00:00 17.5 0 Calma 11 Norte 0 -- -- 59
2020-10-01 19:00:00 20.1 7 Norte 19 Norte 0 -- -- 51
2020-10-01 18:00:00 21.4 14 Norte 23 Norte 0 -- -- 48
2020-10-01 17:00:00 21.8 18 Norte 28 Norte 0 -- -- 47
2020-10-01 16:00:00 22.5 12 Norte 28 Norte 0 -- -- 45
2020-10-01 15:00:00 23.6 16 Norte 32 Norte 0 -- -- 41
2020-10-01 14:00:00 23.5 18 Norte 32 Norte 0 -- -- 45
2020-10-01 13:00:00 22.2 14 Norte 22 Norte 0 -- -- 49
2020-10-01 12:00:00 20.9 8 Norte 18 Norte 0 -- -- 51
2020-10-01 11:00:00 18.3 10 Noroeste 17 Noroeste 0 -- -- 68
2020-10-01 10:00:00 15.8 2 Nordeste 9 Sur 0 -- -- 77
2020-10-01 09:00:00 11.1 3 Sudoeste 8 Sudoeste 0 -- -- 88
2020-10-01 08:00:00 9 5 Sudoeste 8 Sudoeste 0 -- -- 90
2020-10-01 07:00:00 10 4 Sur 9 Sudoeste 0 -- -- 87
2020-10-01 06:00:00 9.9 0 Calma 8 Sudoeste 0 -- -- 83
2020-10-01 05:00:00 11.1 4 Sudoeste 8 Sudoeste 0 -- -- 85
2020-10-01 04:00:00 12.7 3 Norte 8 Sur 0 -- -- 78
2020-10-01 03:00:00 16.1 4 Sur 14 Sur 0 -- -- 69
2020-10-01 02:00:00 14.3 3 Sudoeste 7 Sur 0 -- -- 66
2020-10-01 01:00:00 15.2 5 Sur 9 Sur 0 -- -- 59
2020-10-01 00:00:00 14.5 3 Sudoeste 13 Sudeste 0 -- -- 61